sensor_id;sensor_type;location;lat;lon;timestamp;P1;durP1;ratioP1;P2;durP2;ratioP2
63567;SDS011;49715;42.386;20.434;2022-10-17T00:02:10;34.20;;;19.30;;
63567;SDS011;49715;42.386;20.434;2022-10-17T00:04:36;33.13;;;19.33;;
63567;SDS011;49715;42.386;20.434;2022-10-17T00:07:02;28.67;;;18.93;;
63567;SDS011;49715;42.386;20.434;2022-10-17T00:09:29;24.53;;;17.77;;
63567;SDS011;49715;42.386;20.434;2022-10-17T00:11:55;28.77;;;18.55;;
63567;SDS011;49715;42.386;20.434;2022-10-17T00:14:22;35.73;;;17.53;;
63567;SDS011;49715;42.386;20.434;2022-10-17T00:16:48;32.97;;;19.13;;
63567;SDS011;49715;42.386;20.434;2022-10-17T00:19:14;31.43;;;18.10;;
63567;SDS011;49715;42.386;20.434;2022-10-17T00:21:41;29.37;;;17.47;;
63567;SDS011;49715;42.386;20.434;2022-10-17T00:24:07;28.83;;;17.27;;
63567;SDS011;49715;42.386;20.434;2022-10-17T00:26:33;25.90;;;17.27;;
63567;SDS011;49715;42.386;20.434;2022-10-17T00:29:00;25.85;;;17.45;;
63567;SDS011;49715;42.386;20.434;2022-10-17T00:31:26;28.70;;;17.27;;
63567;SDS011;49715;42.386;20.434;2022-10-17T00:33:52;36.85;;;18.30;;
63567;SDS011;49715;42.386;20.434;2022-10-17T00:36:23;26.90;;;16.23;;
63567;SDS011;49715;42.386;20.434;2022-10-17T00:38:51;32.75;;;17.17;;
63567;SDS011;49715;42.386;20.434;2022-10-17T00:41:21;33.90;;;17.63;;
63567;SDS011;49715;42.386;20.434;2022-10-17T00:46:31;28.10;;;18.30;;
63567;SDS011;49715;42.386;20.434;2022-10-17T00:49:01;26.65;;;18.38;;
63567;SDS011;49715;42.386;20.434;2022-10-17T00:51:33;28.63;;;19.85;;
63567;SDS011;49715;42.386;20.434;2022-10-17T00:54:10;33.67;;;19.98;;
63567;SDS011;49715;42.386;20.434;2022-10-17T00:56:39;33.60;;;20.30;;
63567;SDS011;49715;42.386;20.434;2022-10-17T00:59:06;31.58;;;19.65;;
63567;SDS011;49715;42.386;20.434;2022-10-17T01:01:38;30.02;;;20.17;;
63567;SDS011;49715;42.386;20.434;2022-10-17T01:04:06;37.88;;;20.98;;
63567;SDS011;49715;42.386;20.434;2022-10-17T01:06:32;37.45;;;20.27;;
63567;SDS011;49715;42.386;20.434;2022-10-17T01:08:59;34.22;;;21.83;;
63567;SDS011;49715;42.386;20.434;2022-10-17T01:13:57;34.25;;;21.27;;
63567;SDS011;49715;42.386;20.434;2022-10-17T01:16:45;29.65;;;17.75;;
63567;SDS011;49715;42.386;20.434;2022-10-17T01:19:39;35.45;;;19.58;;
63567;SDS011;49715;42.386;20.434;2022-10-17T01:22:31;30.35;;;19.05;;
63567;SDS011;49715;42.386;20.434;2022-10-17T01:25:27;33.35;;;19.30;;
63567;SDS011;49715;42.386;20.434;2022-10-17T01:31:08;37.08;;;19.73;;
63567;SDS011;49715;42.386;20.434;2022-10-17T01:33:40;30.90;;;19.55;;
63567;SDS011;49715;42.386;20.434;2022-10-17T01:36:23;28.65;;;18.58;;
63567;SDS011;49715;42.386;20.434;2022-10-17T01:39:03;26.23;;;17.53;;
63567;SDS011;49715;42.386;20.434;2022-10-17T01:47:22;28.40;;;15.90;;
63567;SDS011;49715;42.386;20.434;2022-10-17T01:49:52;27.23;;;16.17;;
63567;SDS011;49715;42.386;20.434;2022-10-17T01:52:23;29.17;;;16.90;;
63567;SDS011;49715;42.386;20.434;2022-10-17T01:54:54;33.22;;;17.08;;
63567;SDS011;49715;42.386;20.434;2022-10-17T01:57:29;26.35;;;17.67;;
63567;SDS011;49715;42.386;20.434;2022-10-17T02:00:02;23.65;;;16.20;;
63567;SDS011;49715;42.386;20.434;2022-10-17T02:02:38;32.20;;;18.30;;
63567;SDS011;49715;42.386;20.434;2022-10-17T02:05:07;30.05;;;17.05;;
63567;SDS011;49715;42.386;20.434;2022-10-17T02:07:33;25.50;;;16.63;;
63567;SDS011;49715;42.386;20.434;2022-10-17T02:10:00;33.93;;;17.43;;
63567;SDS011;49715;42.386;20.434;2022-10-17T02:13:12;23.80;;;13.82;;
63567;SDS011;49715;42.386;20.434;2022-10-17T02:18:18;33.60;;;17.27;;
63567;SDS011;49715;42.386;20.434;2022-10-17T02:21:10;28.05;;;17.50;;
63567;SDS011;49715;42.386;20.434;2022-10-17T02:30:39;26.77;;;17.45;;
63567;SDS011;49715;42.386;20.434;2022-10-17T02:33:12;26.08;;;16.00;;
63567;SDS011;49715;42.386;20.434;2022-10-17T02:35:40;21.88;;;16.67;;
63567;SDS011;49715;42.386;20.434;2022-10-17T02:38:12;27.77;;;15.77;;
63567;SDS011;49715;42.386;20.434;2022-10-17T02:40:41;24.88;;;15.82;;
63567;SDS011;49715;42.386;20.434;2022-10-17T02:43:11;24.48;;;15.55;;
63567;SDS011;49715;42.386;20.434;2022-10-17T02:45:38;25.15;;;15.40;;
63567;SDS011;49715;42.386;20.434;2022-10-17T02:48:10;24.42;;;15.07;;
63567;SDS011;49715;42.386;20.434;2022-10-17T02:53:34;24.10;;;15.13;;
63567;SDS011;49715;42.386;20.434;2022-10-17T02:56:11;24.23;;;15.02;;
63567;SDS011;49715;42.386;20.434;2022-10-17T02:58:42;23.92;;;14.68;;
63567;SDS011;49715;42.386;20.434;2022-10-17T03:01:13;22.30;;;15.38;;
63567;SDS011;49715;42.386;20.434;2022-10-17T03:03:40;22.23;;;14.68;;
63567;SDS011;49715;42.386;20.434;2022-10-17T03:06:06;24.97;;;14.87;;
63567;SDS011;49715;42.386;20.434;2022-10-17T03:08:33;22.90;;;13.73;;
63567;SDS011;49715;42.386;20.434;2022-10-17T03:11:01;20.38;;;14.40;;
63567;SDS011;49715;42.386;20.434;2022-10-17T03:13:29;21.88;;;13.48;;
63567;SDS011;49715;42.386;20.434;2022-10-17T03:15:56;21.13;;;13.57;;
63567;SDS011;49715;42.386;20.434;2022-10-17T03:18:22;22.40;;;13.57;;
63567;SDS011;49715;42.386;20.434;2022-10-17T03:20:52;23.42;;;13.50;;
63567;SDS011;49715;42.386;20.434;2022-10-17T03:23:19;21.73;;;14.00;;
63567;SDS011;49715;42.386;20.434;2022-10-17T03:28:14;18.67;;;12.18;;
63567;SDS011;49715;42.386;20.434;2022-10-17T03:30:40;23.03;;;12.57;;
63567;SDS011;49715;42.386;20.434;2022-10-17T03:33:07;27.25;;;13.50;;
63567;SDS011;49715;42.386;20.434;2022-10-17T03:35:33;20.58;;;13.45;;
63567;SDS011;49715;42.386;20.434;2022-10-17T03:38:05;22.92;;;13.93;;
63567;SDS011;49715;42.386;20.434;2022-10-17T03:40:31;28.03;;;15.57;;
63567;SDS011;49715;42.386;20.434;2022-10-17T03:42:58;20.50;;;13.60;;
63567;SDS011;49715;42.386;20.434;2022-10-17T03:45:24;22.27;;;13.60;;
63567;SDS011;49715;42.386;20.434;2022-10-17T03:47:52;22.90;;;13.13;;
63567;SDS011;49715;42.386;20.434;2022-10-17T03:50:18;22.50;;;13.18;;
63567;SDS011;49715;42.386;20.434;2022-10-17T03:52:45;23.50;;;13.55;;
63567;SDS011;49715;42.386;20.434;2022-10-17T03:55:13;19.67;;;13.65;;
63567;SDS011;49715;42.386;20.434;2022-10-17T04:00:06;20.37;;;12.87;;
63567;SDS011;49715;42.386;20.434;2022-10-17T04:02:40;22.23;;;12.88;;
63567;SDS011;49715;42.386;20.434;2022-10-17T04:05:09;17.45;;;12.27;;
63567;SDS011;49715;42.386;20.434;2022-10-17T04:07:35;25.07;;;13.13;;
63567;SDS011;49715;42.386;20.434;2022-10-17T04:10:03;24.52;;;14.25;;
63567;SDS011;49715;42.386;20.434;2022-10-17T04:12:30;24.85;;;14.02;;
63567;SDS011;49715;42.386;20.434;2022-10-17T04:14:56;24.77;;;14.23;;
63567;SDS011;49715;42.386;20.434;2022-10-17T04:17:24;28.00;;;15.05;;
63567;SDS011;49715;42.386;20.434;2022-10-17T04:19:50;22.93;;;14.80;;
63567;SDS011;49715;42.386;20.434;2022-10-17T04:22:17;25.83;;;15.02;;
63567;SDS011;49715;42.386;20.434;2022-10-17T04:24:44;22.73;;;14.63;;
63567;SDS011;49715;42.386;20.434;2022-10-17T04:27:29;22.52;;;14.77;;
63567;SDS011;49715;42.386;20.434;2022-10-17T04:29:55;21.60;;;14.63;;
63567;SDS011;49715;42.386;20.434;2022-10-17T04:32:24;30.63;;;15.65;;
63567;SDS011;49715;42.386;20.434;2022-10-17T04:37:28;28.85;;;15.95;;
63567;SDS011;49715;42.386;20.434;2022-10-17T04:39:55;28.25;;;16.75;;
63567;SDS011;49715;42.386;20.434;2022-10-17T04:42:21;62.75;;;17.90;;
63567;SDS011;49715;42.386;20.434;2022-10-17T04:44:50;64.28;;;16.83;;
63567;SDS011;49715;42.386;20.434;2022-10-17T04:49:43;39.30;;;15.23;;
63567;SDS011;49715;42.386;20.434;2022-10-17T04:52:10;25.90;;;15.60;;
63567;SDS011;49715;42.386;20.434;2022-10-17T04:54:40;29.20;;;14.55;;
63567;SDS011;49715;42.386;20.434;2022-10-17T04:57:08;25.13;;;14.60;;
63567;SDS011;49715;42.386;20.434;2022-10-17T04:59:35;18.95;;;14.40;;
63567;SDS011;49715;42.386;20.434;2022-10-17T05:02:14;20.02;;;13.73;;
63567;SDS011;49715;42.386;20.434;2022-10-17T05:04:40;21.20;;;14.27;;
63567;SDS011;49715;42.386;20.434;2022-10-17T05:07:09;20.17;;;13.70;;
63567;SDS011;49715;42.386;20.434;2022-10-17T05:09:56;20.55;;;14.25;;
63567;SDS011;49715;42.386;20.434;2022-10-17T05:14:49;19.40;;;14.48;;
63567;SDS011;49715;42.386;20.434;2022-10-17T05:17:16;20.23;;;14.43;;
63567;SDS011;49715;42.386;20.434;2022-10-17T05:19:43;18.08;;;14.30;;
63567;SDS011;49715;42.386;20.434;2022-10-17T05:22:10;24.27;;;14.73;;
63567;SDS011;49715;42.386;20.434;2022-10-17T05:24:36;25.00;;;15.50;;
63567;SDS011;49715;42.386;20.434;2022-10-17T05:27:02;21.75;;;15.32;;
63567;SDS011;49715;42.386;20.434;2022-10-17T05:29:29;22.77;;;15.67;;
63567;SDS011;49715;42.386;20.434;2022-10-17T05:32:03;27.77;;;15.88;;
63567;SDS011;49715;42.386;20.434;2022-10-17T05:34:33;25.67;;;18.35;;
63567;SDS011;49715;42.386;20.434;2022-10-17T05:36:59;34.78;;;21.17;;
63567;SDS011;49715;42.386;20.434;2022-10-17T05:39:26;38.17;;;24.35;;
63567;SDS011;49715;42.386;20.434;2022-10-17T05:41:53;28.00;;;19.02;;
63567;SDS011;49715;42.386;20.434;2022-10-17T05:44:19;32.67;;;22.00;;
63567;SDS011;49715;42.386;20.434;2022-10-17T05:46:52;36.97;;;25.42;;
63567;SDS011;49715;42.386;20.434;2022-10-17T05:49:18;38.97;;;28.33;;
63567;SDS011;49715;42.386;20.434;2022-10-17T05:51:45;38.88;;;28.48;;
63567;SDS011;49715;42.386;20.434;2022-10-17T05:54:12;44.55;;;26.20;;
63567;SDS011;49715;42.386;20.434;2022-10-17T05:56:41;40.92;;;27.20;;
63567;SDS011;49715;42.386;20.434;2022-10-17T05:59:11;40.95;;;27.10;;
63567;SDS011;49715;42.386;20.434;2022-10-17T06:02:04;42.90;;;23.05;;
63567;SDS011;49715;42.386;20.434;2022-10-17T06:04:30;32.35;;;21.60;;
63567;SDS011;49715;42.386;20.434;2022-10-17T06:06:58;36.13;;;20.98;;
63567;SDS011;49715;42.386;20.434;2022-10-17T06:09:28;30.85;;;17.10;;
63567;SDS011;49715;42.386;20.434;2022-10-17T06:11:57;28.45;;;16.65;;
63567;SDS011;49715;42.386;20.434;2022-10-17T06:14:24;28.85;;;16.65;;
63567;SDS011;49715;42.386;20.434;2022-10-17T06:16:54;26.88;;;17.30;;
63567;SDS011;49715;42.386;20.434;2022-10-17T06:19:21;32.13;;;17.15;;
63567;SDS011;49715;42.386;20.434;2022-10-17T06:21:47;25.33;;;17.20;;
63567;SDS011;49715;42.386;20.434;2022-10-17T06:24:19;31.52;;;16.63;;
63567;SDS011;49715;42.386;20.434;2022-10-17T06:26:45;41.30;;;17.80;;
63567;SDS011;49715;42.386;20.434;2022-10-17T06:29:14;35.83;;;18.83;;
63567;SDS011;49715;42.386;20.434;2022-10-17T06:31:45;35.35;;;19.67;;
63567;SDS011;49715;42.386;20.434;2022-10-17T06:34:11;34.00;;;19.85;;
63567;SDS011;49715;42.386;20.434;2022-10-17T06:36:39;34.70;;;22.27;;
63567;SDS011;49715;42.386;20.434;2022-10-17T06:39:07;42.63;;;26.48;;
63567;SDS011;49715;42.386;20.434;2022-10-17T06:41:39;57.42;;;28.48;;
63567;SDS011;49715;42.386;20.434;2022-10-17T06:44:11;46.42;;;26.10;;
63567;SDS011;49715;42.386;20.434;2022-10-17T06:47:02;40.08;;;20.77;;
63567;SDS011;49715;42.386;20.434;2022-10-17T06:49:31;36.60;;;20.10;;
63567;SDS011;49715;42.386;20.434;2022-10-17T06:52:19;35.60;;;19.48;;
63567;SDS011;49715;42.386;20.434;2022-10-17T06:55:06;36.85;;;19.20;;
63567;SDS011;49715;42.386;20.434;2022-10-17T06:57:47;34.88;;;19.40;;
63567;SDS011;49715;42.386;20.434;2022-10-17T07:00:49;35.30;;;19.90;;
63567;SDS011;49715;42.386;20.434;2022-10-17T07:03:23;27.35;;;18.40;;
63567;SDS011;49715;42.386;20.434;2022-10-17T07:06:24;36.53;;;18.38;;
63567;SDS011;49715;42.386;20.434;2022-10-17T07:08:58;25.33;;;17.80;;
63567;SDS011;49715;42.386;20.434;2022-10-17T07:11:31;31.40;;;18.77;;
63567;SDS011;49715;42.386;20.434;2022-10-17T07:14:01;40.00;;;19.17;;
63567;SDS011;49715;42.386;20.434;2022-10-17T07:16:38;42.58;;;22.85;;
63567;SDS011;49715;42.386;20.434;2022-10-17T07:19:20;45.42;;;20.63;;
63567;SDS011;49715;42.386;20.434;2022-10-17T07:21:49;33.20;;;19.67;;
63567;SDS011;49715;42.386;20.434;2022-10-17T07:24:19;29.67;;;19.17;;
63567;SDS011;49715;42.386;20.434;2022-10-17T07:26:59;40.63;;;22.35;;
63567;SDS011;49715;42.386;20.434;2022-10-17T07:29:28;46.85;;;24.05;;
63567;SDS011;49715;42.386;20.434;2022-10-17T07:32:07;52.78;;;31.45;;
63567;SDS011;49715;42.386;20.434;2022-10-17T07:34:35;48.58;;;24.33;;
63567;SDS011;49715;42.386;20.434;2022-10-17T07:37:03;38.88;;;22.52;;
63567;SDS011;49715;42.386;20.434;2022-10-17T07:39:35;28.88;;;19.52;;
63567;SDS011;49715;42.386;20.434;2022-10-17T07:42:03;31.63;;;19.05;;
63567;SDS011;49715;42.386;20.434;2022-10-17T07:44:30;32.78;;;19.40;;
63567;SDS011;49715;42.386;20.434;2022-10-17T07:46:57;34.70;;;19.08;;
63567;SDS011;49715;42.386;20.434;2022-10-17T07:49:23;36.35;;;18.80;;
63567;SDS011;49715;42.386;20.434;2022-10-17T07:51:52;36.30;;;18.50;;
63567;SDS011;49715;42.386;20.434;2022-10-17T07:54:23;34.53;;;17.90;;
63567;SDS011;49715;42.386;20.434;2022-10-17T07:56:50;32.55;;;18.63;;
63567;SDS011;49715;42.386;20.434;2022-10-17T07:59:20;28.80;;;18.05;;
63567;SDS011;49715;42.386;20.434;2022-10-17T08:01:48;30.27;;;17.23;;
63567;SDS011;49715;42.386;20.434;2022-10-17T08:04:14;32.42;;;19.08;;
63567;SDS011;49715;42.386;20.434;2022-10-17T08:09:09;32.13;;;17.35;;
63567;SDS011;49715;42.386;20.434;2022-10-17T08:11:35;30.40;;;18.17;;
63567;SDS011;49715;42.386;20.434;2022-10-17T08:14:02;32.88;;;17.55;;
63567;SDS011;49715;42.386;20.434;2022-10-17T08:16:28;24.40;;;17.48;;
63567;SDS011;49715;42.386;20.434;2022-10-17T08:18:55;27.67;;;17.05;;
63567;SDS011;49715;42.386;20.434;2022-10-17T08:21:21;27.30;;;16.92;;
63567;SDS011;49715;42.386;20.434;2022-10-17T08:23:49;29.15;;;17.23;;
63567;SDS011;49715;42.386;20.434;2022-10-17T08:26:19;31.75;;;18.00;;
63567;SDS011;49715;42.386;20.434;2022-10-17T08:28:46;35.70;;;17.83;;
63567;SDS011;49715;42.386;20.434;2022-10-17T08:31:17;24.10;;;15.43;;
63567;SDS011;49715;42.386;20.434;2022-10-17T08:33:45;33.15;;;20.55;;
63567;SDS011;49715;42.386;20.434;2022-10-17T08:36:13;31.42;;;19.05;;
63567;SDS011;49715;42.386;20.434;2022-10-17T08:38:41;29.70;;;18.23;;
63567;SDS011;49715;42.386;20.434;2022-10-17T08:47:00;32.25;;;18.27;;
63567;SDS011;49715;42.386;20.434;2022-10-17T08:49:42;36.15;;;19.63;;
63567;SDS011;49715;42.386;20.434;2022-10-17T08:55:31;38.70;;;17.75;;
63567;SDS011;49715;42.386;20.434;2022-10-17T08:58:35;37.70;;;18.70;;
63567;SDS011;49715;42.386;20.434;2022-10-17T09:01:07;32.45;;;18.73;;
63567;SDS011;49715;42.386;20.434;2022-10-17T09:06:51;37.55;;;19.77;;
63567;SDS011;49715;42.386;20.434;2022-10-17T09:09:24;41.97;;;17.85;;
63567;SDS011;49715;42.386;20.434;2022-10-17T09:18:35;27.55;;;12.82;;
63567;SDS011;49715;42.386;20.434;2022-10-17T09:23:41;31.02;;;14.13;;
63567;SDS011;49715;42.386;20.434;2022-10-17T09:26:21;149.80;;;87.72;;
63567;SDS011;49715;42.386;20.434;2022-10-17T09:28:51;23.33;;;14.10;;
63567;SDS011;49715;42.386;20.434;2022-10-17T09:31:24;24.02;;;12.80;;
63567;SDS011;49715;42.386;20.434;2022-10-17T09:34:03;55.85;;;32.65;;
63567;SDS011;49715;42.386;20.434;2022-10-17T09:36:34;71.82;;;46.83;;
63567;SDS011;49715;42.386;20.434;2022-10-17T09:41:49;42.58;;;26.95;;
63567;SDS011;49715;42.386;20.434;2022-10-17T09:44:20;54.65;;;35.65;;
63567;SDS011;49715;42.386;20.434;2022-10-17T09:49:26;27.30;;;14.15;;
63567;SDS011;49715;42.386;20.434;2022-10-17T09:52:13;34.15;;;20.17;;
63567;SDS011;49715;42.386;20.434;2022-10-17T09:55:05;13.55;;;7.80;;
63567;SDS011;49715;42.386;20.434;2022-10-17T09:58:02;18.13;;;8.40;;
63567;SDS011;49715;42.386;20.434;2022-10-17T10:00:32;24.10;;;12.38;;
63567;SDS011;49715;42.386;20.434;2022-10-17T10:03:07;24.85;;;11.75;;
63567;SDS011;49715;42.386;20.434;2022-10-17T10:06:04;14.10;;;7.80;;
63567;SDS011;49715;42.386;20.434;2022-10-17T10:09:01;20.30;;;9.40;;
63567;SDS011;49715;42.386;20.434;2022-10-17T10:12:08;20.45;;;8.18;;
63567;SDS011;49715;42.386;20.434;2022-10-17T10:14:52;31.75;;;18.05;;
63567;SDS011;49715;42.386;20.434;2022-10-17T10:23:13;22.15;;;15.68;;
63567;SDS011;49715;42.386;20.434;2022-10-17T10:28:28;11.13;;;6.93;;
63567;SDS011;49715;42.386;20.434;2022-10-17T10:31:06;28.13;;;17.38;;
63567;SDS011;49715;42.386;20.434;2022-10-17T10:33:35;13.30;;;6.50;;
63567;SDS011;49715;42.386;20.434;2022-10-17T10:36:14;10.77;;;6.43;;
63567;SDS011;49715;42.386;20.434;2022-10-17T10:38:54;12.52;;;6.20;;
63567;SDS011;49715;42.386;20.434;2022-10-17T10:41:43;12.77;;;6.28;;
63567;SDS011;49715;42.386;20.434;2022-10-17T10:44:12;14.93;;;6.88;;
63567;SDS011;49715;42.386;20.434;2022-10-17T10:46:44;19.75;;;12.27;;
63567;SDS011;49715;42.386;20.434;2022-10-17T10:49:28;19.75;;;8.02;;
63567;SDS011;49715;42.386;20.434;2022-10-17T10:51:56;16.92;;;8.00;;
63567;SDS011;49715;42.386;20.434;2022-10-17T10:54:36;18.70;;;6.30;;
63567;SDS011;49715;42.386;20.434;2022-10-17T10:57:20;22.37;;;6.80;;
63567;SDS011;49715;42.386;20.434;2022-10-17T11:02:26;13.48;;;5.50;;
63567;SDS011;49715;42.386;20.434;2022-10-17T11:07:42;16.98;;;5.55;;
63567;SDS011;49715;42.386;20.434;2022-10-17T11:10:27;14.02;;;5.72;;
63567;SDS011;49715;42.386;20.434;2022-10-17T11:21:01;10.65;;;5.10;;
63567;SDS011;49715;42.386;20.434;2022-10-17T11:24:02;15.05;;;6.03;;
63567;SDS011;49715;42.386;20.434;2022-10-17T11:26:37;15.07;;;5.60;;
63567;SDS011;49715;42.386;20.434;2022-10-17T11:29:12;9.98;;;4.60;;
63567;SDS011;49715;42.386;20.434;2022-10-17T11:34:24;12.02;;;4.43;;
63567;SDS011;49715;42.386;20.434;2022-10-17T11:36:57;13.02;;;5.07;;
63567;SDS011;49715;42.386;20.434;2022-10-17T11:42:24;14.57;;;4.85;;
63567;SDS011;49715;42.386;20.434;2022-10-17T11:45:25;13.25;;;4.80;;
63567;SDS011;49715;42.386;20.434;2022-10-17T11:48:05;13.82;;;4.68;;
63567;SDS011;49715;42.386;20.434;2022-10-17T11:50:47;15.48;;;4.20;;
63567;SDS011;49715;42.386;20.434;2022-10-17T11:53:25;12.45;;;4.75;;
63567;SDS011;49715;42.386;20.434;2022-10-17T11:56:17;15.57;;;4.70;;
63567;SDS011;49715;42.386;20.434;2022-10-17T12:02:57;8.27;;;3.28;;
63567;SDS011;49715;42.386;20.434;2022-10-17T12:08:07;18.55;;;4.57;;
63567;SDS011;49715;42.386;20.434;2022-10-17T12:10:53;14.48;;;5.00;;
63567;SDS011;49715;42.386;20.434;2022-10-17T12:18:46;8.82;;;4.30;;
63567;SDS011;49715;42.386;20.434;2022-10-17T12:21:18;15.90;;;4.40;;
63567;SDS011;49715;42.386;20.434;2022-10-17T12:23:51;9.45;;;4.20;;
63567;SDS011;49715;42.386;20.434;2022-10-17T12:26:29;7.25;;;4.28;;
63567;SDS011;49715;42.386;20.434;2022-10-17T12:29:26;9.03;;;4.53;;
63567;SDS011;49715;42.386;20.434;2022-10-17T12:32:19;10.63;;;4.13;;
63567;SDS011;49715;42.386;20.434;2022-10-17T12:34:52;5.63;;;3.33;;
63567;SDS011;49715;42.386;20.434;2022-10-17T12:51:20;13.55;;;3.92;;
63567;SDS011;49715;42.386;20.434;2022-10-17T12:59:13;18.83;;;4.30;;
63567;SDS011;49715;42.386;20.434;2022-10-17T13:01:48;11.77;;;3.38;;
63567;SDS011;49715;42.386;20.434;2022-10-17T13:04:21;9.75;;;3.13;;
63567;SDS011;49715;42.386;20.434;2022-10-17T13:06:50;9.05;;;3.10;;
63567;SDS011;49715;42.386;20.434;2022-10-17T13:09:29;8.05;;;3.22;;
63567;SDS011;49715;42.386;20.434;2022-10-17T13:12:05;8.15;;;2.90;;
63567;SDS011;49715;42.386;20.434;2022-10-17T13:14:40;9.07;;;2.83;;
63567;SDS011;49715;42.386;20.434;2022-10-17T13:17:19;7.40;;;3.08;;
63567;SDS011;49715;42.386;20.434;2022-10-17T13:19:49;5.10;;;2.85;;
63567;SDS011;49715;42.386;20.434;2022-10-17T13:24:46;10.52;;;3.20;;
63567;SDS011;49715;42.386;20.434;2022-10-17T13:27:32;7.95;;;2.90;;
63567;SDS011;49715;42.386;20.434;2022-10-17T13:30:25;7.65;;;2.90;;
63567;SDS011;49715;42.386;20.434;2022-10-17T13:33:38;11.45;;;2.90;;
63567;SDS011;49715;42.386;20.434;2022-10-17T13:36:07;7.68;;;2.35;;
63567;SDS011;49715;42.386;20.434;2022-10-17T13:38:43;8.07;;;2.55;;
63567;SDS011;49715;42.386;20.434;2022-10-17T13:41:22;6.35;;;2.78;;
63567;SDS011;49715;42.386;20.434;2022-10-17T13:43:58;11.55;;;3.30;;
63567;SDS011;49715;42.386;20.434;2022-10-17T13:46:28;16.20;;;3.65;;
63567;SDS011;49715;42.386;20.434;2022-10-17T13:48:57;13.25;;;3.75;;
63567;SDS011;49715;42.386;20.434;2022-10-17T13:51:32;11.23;;;3.75;;
63567;SDS011;49715;42.386;20.434;2022-10-17T13:54:01;11.43;;;3.20;;
63567;SDS011;49715;42.386;20.434;2022-10-17T13:56:43;14.55;;;3.80;;
63567;SDS011;49715;42.386;20.434;2022-10-17T13:59:21;17.80;;;3.97;;
63567;SDS011;49715;42.386;20.434;2022-10-17T14:01:50;12.50;;;3.78;;
63567;SDS011;49715;42.386;20.434;2022-10-17T14:04:18;11.40;;;3.47;;
63567;SDS011;49715;42.386;20.434;2022-10-17T14:09:17;19.05;;;4.45;;
63567;SDS011;49715;42.386;20.434;2022-10-17T14:14:39;6.70;;;3.63;;
63567;SDS011;49715;42.386;20.434;2022-10-17T14:17:12;8.73;;;3.22;;
63567;SDS011;49715;42.386;20.434;2022-10-17T14:19:52;11.85;;;3.22;;
63567;SDS011;49715;42.386;20.434;2022-10-17T14:25:02;6.68;;;2.78;;
63567;SDS011;49715;42.386;20.434;2022-10-17T14:30:00;10.40;;;3.63;;
63567;SDS011;49715;42.386;20.434;2022-10-17T14:32:33;12.60;;;3.50;;
63567;SDS011;49715;42.386;20.434;2022-10-17T14:35:15;12.15;;;3.72;;
63567;SDS011;49715;42.386;20.434;2022-10-17T14:37:46;12.23;;;4.22;;
63567;SDS011;49715;42.386;20.434;2022-10-17T14:40:22;11.65;;;4.07;;
63567;SDS011;49715;42.386;20.434;2022-10-17T14:42:50;10.60;;;3.33;;
63567;SDS011;49715;42.386;20.434;2022-10-17T14:47:55;11.75;;;3.70;;
63567;SDS011;49715;42.386;20.434;2022-10-17T14:50:28;9.98;;;3.45;;
63567;SDS011;49715;42.386;20.434;2022-10-17T14:53:19;9.88;;;4.05;;
63567;SDS011;49715;42.386;20.434;2022-10-17T14:55:56;9.52;;;4.13;;
63567;SDS011;49715;42.386;20.434;2022-10-17T14:58:25;12.98;;;4.70;;
63567;SDS011;49715;42.386;20.434;2022-10-17T15:00:59;16.13;;;4.50;;
63567;SDS011;49715;42.386;20.434;2022-10-17T15:03:27;10.80;;;4.88;;
63567;SDS011;49715;42.386;20.434;2022-10-17T15:06:20;11.48;;;4.93;;
63567;SDS011;49715;42.386;20.434;2022-10-17T15:08:49;13.35;;;5.50;;
63567;SDS011;49715;42.386;20.434;2022-10-17T15:11:21;20.05;;;6.45;;
63567;SDS011;49715;42.386;20.434;2022-10-17T15:13:54;13.88;;;5.68;;
63567;SDS011;49715;42.386;20.434;2022-10-17T15:18:48;16.73;;;6.65;;
63567;SDS011;49715;42.386;20.434;2022-10-17T15:21:26;17.23;;;6.22;;
63567;SDS011;49715;42.386;20.434;2022-10-17T15:23:55;15.70;;;6.70;;
63567;SDS011;49715;42.386;20.434;2022-10-17T15:26:34;26.38;;;8.02;;
63567;SDS011;49715;42.386;20.434;2022-10-17T15:29:02;17.63;;;7.90;;
63567;SDS011;49715;42.386;20.434;2022-10-17T15:31:38;22.00;;;7.60;;
63567;SDS011;49715;42.386;20.434;2022-10-17T15:34:06;16.65;;;7.03;;
63567;SDS011;49715;42.386;20.434;2022-10-17T15:36:47;17.92;;;7.78;;
63567;SDS011;49715;42.386;20.434;2022-10-17T15:39:14;23.35;;;11.52;;
63567;SDS011;49715;42.386;20.434;2022-10-17T15:41:41;24.60;;;15.18;;
63567;SDS011;49715;42.386;20.434;2022-10-17T15:44:08;28.75;;;19.17;;
63567;SDS011;49715;42.386;20.434;2022-10-17T15:46:35;30.20;;;17.92;;
63567;SDS011;49715;42.386;20.434;2022-10-17T15:49:06;26.08;;;15.88;;
63567;SDS011;49715;42.386;20.434;2022-10-17T15:51:36;27.00;;;13.63;;
63567;SDS011;49715;42.386;20.434;2022-10-17T15:54:03;18.05;;;11.70;;
63567;SDS011;49715;42.386;20.434;2022-10-17T15:56:32;21.88;;;12.32;;
63567;SDS011;49715;42.386;20.434;2022-10-17T15:59:02;21.33;;;12.02;;
63567;SDS011;49715;42.386;20.434;2022-10-17T16:01:30;25.50;;;12.48;;
63567;SDS011;49715;42.386;20.434;2022-10-17T16:03:58;33.50;;;17.50;;
63567;SDS011;49715;42.386;20.434;2022-10-17T16:06:25;35.45;;;18.13;;
63567;SDS011;49715;42.386;20.434;2022-10-17T16:13:59;47.10;;;20.95;;
63567;SDS011;49715;42.386;20.434;2022-10-17T16:16:27;68.03;;;23.38;;
63567;SDS011;49715;42.386;20.434;2022-10-17T16:23:49;57.40;;;26.15;;
63567;SDS011;49715;42.386;20.434;2022-10-17T16:26:16;73.47;;;27.60;;
63567;SDS011;49715;42.386;20.434;2022-10-17T16:28:43;68.00;;;27.65;;
63567;SDS011;49715;42.386;20.434;2022-10-17T16:31:20;73.13;;;27.13;;
63567;SDS011;49715;42.386;20.434;2022-10-17T16:33:49;62.80;;;24.75;;
63567;SDS011;49715;42.386;20.434;2022-10-17T16:36:17;66.97;;;25.02;;
63567;SDS011;49715;42.386;20.434;2022-10-17T16:41:18;53.08;;;19.75;;
63567;SDS011;49715;42.386;20.434;2022-10-17T16:43:45;48.78;;;18.92;;
63567;SDS011;49715;42.386;20.434;2022-10-17T16:46:15;46.05;;;19.00;;
63567;SDS011;49715;42.386;20.434;2022-10-17T16:48:42;43.22;;;20.20;;
63567;SDS011;49715;42.386;20.434;2022-10-17T16:51:10;43.35;;;20.33;;
63567;SDS011;49715;42.386;20.434;2022-10-17T16:53:38;42.50;;;19.15;;
63567;SDS011;49715;42.386;20.434;2022-10-17T16:56:09;40.85;;;18.80;;
63567;SDS011;49715;42.386;20.434;2022-10-17T16:58:38;32.72;;;17.95;;
63567;SDS011;49715;42.386;20.434;2022-10-17T17:01:07;40.83;;;18.85;;
63567;SDS011;49715;42.386;20.434;2022-10-17T17:03:41;36.50;;;19.45;;
63567;SDS011;49715;42.386;20.434;2022-10-17T17:06:10;35.42;;;16.95;;
63567;SDS011;49715;42.386;20.434;2022-10-17T17:08:42;32.05;;;16.58;;
63567;SDS011;49715;42.386;20.434;2022-10-17T17:11:11;31.73;;;16.60;;
63567;SDS011;49715;42.386;20.434;2022-10-17T17:13:38;34.38;;;17.95;;
63567;SDS011;49715;42.386;20.434;2022-10-17T17:18:34;35.40;;;17.15;;
63567;SDS011;49715;42.386;20.434;2022-10-17T17:21:03;30.65;;;16.92;;
63567;SDS011;49715;42.386;20.434;2022-10-17T17:23:34;32.42;;;16.30;;
63567;SDS011;49715;42.386;20.434;2022-10-17T17:26:13;32.40;;;16.67;;